sensor_id;sensor_type;location;lat;lon;timestamp;P1;durP1;ratioP1;P2;durP2;ratioP2
61383;SDS011;47254;49.346;8.798;2022-07-31T00:01:45;5.40;;;3.15;;
61383;SDS011;47254;49.346;8.798;2022-07-31T00:04:10;6.40;;;2.83;;
61383;SDS011;47254;49.346;8.798;2022-07-31T00:06:36;6.28;;;3.35;;
61383;SDS011;47254;49.346;8.798;2022-07-31T00:09:01;3.45;;;3.15;;
61383;SDS011;47254;49.346;8.798;2022-07-31T00:11:26;5.50;;;3.13;;
61383;SDS011;47254;49.346;8.798;2022-07-31T00:13:51;6.13;;;3.53;;
61383;SDS011;47254;49.346;8.798;2022-07-31T00:16:17;3.63;;;2.50;;
61383;SDS011;47254;49.346;8.798;2022-07-31T00:18:42;8.40;;;3.40;;
61383;SDS011;47254;49.346;8.798;2022-07-31T00:21:07;4.40;;;2.90;;
61383;SDS011;47254;49.346;8.798;2022-07-31T00:23:32;9.13;;;3.17;;
61383;SDS011;47254;49.346;8.798;2022-07-31T00:26:00;4.65;;;3.10;;
61383;SDS011;47254;49.346;8.798;2022-07-31T00:28:25;6.07;;;2.80;;
61383;SDS011;47254;49.346;8.798;2022-07-31T00:30:53;4.55;;;2.97;;
61383;SDS011;47254;49.346;8.798;2022-07-31T00:33:18;9.13;;;3.27;;
61383;SDS011;47254;49.346;8.798;2022-07-31T00:35:46;8.25;;;2.95;;
61383;SDS011;47254;49.346;8.798;2022-07-31T00:38:11;3.00;;;2.40;;
61383;SDS011;47254;49.346;8.798;2022-07-31T00:40:43;6.10;;;3.13;;
61383;SDS011;47254;49.346;8.798;2022-07-31T00:43:09;4.55;;;2.80;;
61383;SDS011;47254;49.346;8.798;2022-07-31T00:45:34;4.27;;;3.10;;
61383;SDS011;47254;49.346;8.798;2022-07-31T00:47:59;3.77;;;2.47;;
61383;SDS011;47254;49.346;8.798;2022-07-31T00:50:27;3.25;;;2.53;;
61383;SDS011;47254;49.346;8.798;2022-07-31T00:52:53;3.43;;;2.50;;
61383;SDS011;47254;49.346;8.798;2022-07-31T00:55:18;7.47;;;2.90;;
61383;SDS011;47254;49.346;8.798;2022-07-31T00:57:43;4.63;;;3.67;;
61383;SDS011;47254;49.346;8.798;2022-07-31T01:00:08;4.18;;;2.80;;
61383;SDS011;47254;49.346;8.798;2022-07-31T01:02:34;6.45;;;3.20;;
61383;SDS011;47254;49.346;8.798;2022-07-31T01:05:04;6.25;;;3.17;;
61383;SDS011;47254;49.346;8.798;2022-07-31T01:07:30;5.45;;;3.20;;
61383;SDS011;47254;49.346;8.798;2022-07-31T01:09:55;4.87;;;3.27;;
61383;SDS011;47254;49.346;8.798;2022-07-31T01:12:28;4.40;;;3.28;;
61383;SDS011;47254;49.346;8.798;2022-07-31T01:14:55;4.85;;;3.20;;
61383;SDS011;47254;49.346;8.798;2022-07-31T01:17:22;7.05;;;2.97;;
61383;SDS011;47254;49.346;8.798;2022-07-31T01:19:48;5.40;;;3.22;;
61383;SDS011;47254;49.346;8.798;2022-07-31T01:27:25;3.47;;;3.13;;
61383;SDS011;47254;49.346;8.798;2022-07-31T01:29:53;4.25;;;3.15;;
61383;SDS011;47254;49.346;8.798;2022-07-31T01:32:24;5.40;;;3.35;;
61383;SDS011;47254;49.346;8.798;2022-07-31T01:34:52;4.80;;;3.20;;
61383;SDS011;47254;49.346;8.798;2022-07-31T01:37:32;4.13;;;2.90;;
61383;SDS011;47254;49.346;8.798;2022-07-31T01:40:05;8.98;;;2.88;;
61383;SDS011;47254;49.346;8.798;2022-07-31T01:42:33;4.50;;;3.03;;
61383;SDS011;47254;49.346;8.798;2022-07-31T01:45:00;7.22;;;3.00;;
61383;SDS011;47254;49.346;8.798;2022-07-31T01:47:29;9.02;;;3.38;;
61383;SDS011;47254;49.346;8.798;2022-07-31T01:49:55;3.75;;;2.80;;
61383;SDS011;47254;49.346;8.798;2022-07-31T01:52:23;7.95;;;3.13;;
61383;SDS011;47254;49.346;8.798;2022-07-31T01:54:49;4.72;;;3.05;;
61383;SDS011;47254;49.346;8.798;2022-07-31T01:57:15;3.80;;;2.85;;
61383;SDS011;47254;49.346;8.798;2022-07-31T01:59:40;4.05;;;2.80;;
61383;SDS011;47254;49.346;8.798;2022-07-31T02:02:09;6.45;;;3.08;;
61383;SDS011;47254;49.346;8.798;2022-07-31T02:04:35;3.08;;;2.60;;
61383;SDS011;47254;49.346;8.798;2022-07-31T02:07:03;3.67;;;2.80;;
61383;SDS011;47254;49.346;8.798;2022-07-31T02:09:32;4.53;;;2.90;;
61383;SDS011;47254;49.346;8.798;2022-07-31T02:11:57;4.45;;;2.70;;
61383;SDS011;47254;49.346;8.798;2022-07-31T02:14:23;3.13;;;2.70;;
61383;SDS011;47254;49.346;8.798;2022-07-31T02:16:48;3.78;;;3.20;;
61383;SDS011;47254;49.346;8.798;2022-07-31T02:19:16;5.00;;;2.95;;
61383;SDS011;47254;49.346;8.798;2022-07-31T02:21:43;3.15;;;2.83;;
61383;SDS011;47254;49.346;8.798;2022-07-31T02:24:08;5.40;;;2.50;;
61383;SDS011;47254;49.346;8.798;2022-07-31T02:26:36;11.20;;;3.08;;
61383;SDS011;47254;49.346;8.798;2022-07-31T02:29:03;8.95;;;3.17;;
61383;SDS011;47254;49.346;8.798;2022-07-31T02:31:29;5.55;;;2.97;;
61383;SDS011;47254;49.346;8.798;2022-07-31T02:33:57;5.05;;;2.65;;
61383;SDS011;47254;49.346;8.798;2022-07-31T02:36:25;3.80;;;3.20;;
61383;SDS011;47254;49.346;8.798;2022-07-31T02:38:51;3.90;;;2.88;;
61383;SDS011;47254;49.346;8.798;2022-07-31T02:41:17;4.43;;;3.55;;
61383;SDS011;47254;49.346;8.798;2022-07-31T02:43:44;6.53;;;3.10;;
61383;SDS011;47254;49.346;8.798;2022-07-31T02:46:10;5.57;;;2.78;;
61383;SDS011;47254;49.346;8.798;2022-07-31T02:48:38;3.78;;;2.83;;
61383;SDS011;47254;49.346;8.798;2022-07-31T02:51:04;5.43;;;2.90;;
61383;SDS011;47254;49.346;8.798;2022-07-31T02:53:32;4.43;;;2.80;;
61383;SDS011;47254;49.346;8.798;2022-07-31T02:55:57;4.22;;;3.10;;
61383;SDS011;47254;49.346;8.798;2022-07-31T02:58:23;5.05;;;3.45;;
61383;SDS011;47254;49.346;8.798;2022-07-31T03:00:56;4.37;;;3.30;;
61383;SDS011;47254;49.346;8.798;2022-07-31T03:03:21;8.32;;;3.50;;
61383;SDS011;47254;49.346;8.798;2022-07-31T03:05:47;6.97;;;3.33;;
61383;SDS011;47254;49.346;8.798;2022-07-31T03:08:14;6.47;;;3.08;;
61383;SDS011;47254;49.346;8.798;2022-07-31T03:10:39;9.70;;;3.00;;
61383;SDS011;47254;49.346;8.798;2022-07-31T03:13:09;4.30;;;3.00;;
61383;SDS011;47254;49.346;8.798;2022-07-31T03:15:35;6.30;;;3.15;;
61383;SDS011;47254;49.346;8.798;2022-07-31T03:18:05;3.47;;;2.92;;
61383;SDS011;47254;49.346;8.798;2022-07-31T03:20:31;6.85;;;3.50;;
61383;SDS011;47254;49.346;8.798;2022-07-31T03:22:58;4.00;;;3.47;;
61383;SDS011;47254;49.346;8.798;2022-07-31T03:25:26;3.95;;;3.10;;
61383;SDS011;47254;49.346;8.798;2022-07-31T03:27:52;4.75;;;3.00;;
61383;SDS011;47254;49.346;8.798;2022-07-31T03:30:17;4.70;;;3.28;;
61383;SDS011;47254;49.346;8.798;2022-07-31T03:32:43;4.50;;;3.17;;
61383;SDS011;47254;49.346;8.798;2022-07-31T03:35:08;8.05;;;3.67;;
61383;SDS011;47254;49.346;8.798;2022-07-31T03:37:34;6.13;;;2.97;;
61383;SDS011;47254;49.346;8.798;2022-07-31T03:40:01;6.60;;;3.30;;
61383;SDS011;47254;49.346;8.798;2022-07-31T03:42:29;5.45;;;3.92;;
61383;SDS011;47254;49.346;8.798;2022-07-31T03:44:57;5.65;;;3.67;;
61383;SDS011;47254;49.346;8.798;2022-07-31T03:47:22;6.65;;;2.95;;
61383;SDS011;47254;49.346;8.798;2022-07-31T03:49:47;13.90;;;3.95;;
61383;SDS011;47254;49.346;8.798;2022-07-31T03:52:15;4.63;;;2.92;;
61383;SDS011;47254;49.346;8.798;2022-07-31T03:54:42;7.05;;;3.35;;
61383;SDS011;47254;49.346;8.798;2022-07-31T03:57:07;5.05;;;3.60;;
61383;SDS011;47254;49.346;8.798;2022-07-31T03:59:33;5.25;;;3.15;;
61383;SDS011;47254;49.346;8.798;2022-07-31T04:01:59;5.60;;;3.35;;
61383;SDS011;47254;49.346;8.798;2022-07-31T04:04:24;6.05;;;3.53;;
61383;SDS011;47254;49.346;8.798;2022-07-31T04:06:52;5.93;;;3.25;;
61383;SDS011;47254;49.346;8.798;2022-07-31T04:09:17;4.72;;;3.33;;
61383;SDS011;47254;49.346;8.798;2022-07-31T04:11:45;4.22;;;3.60;;
61383;SDS011;47254;49.346;8.798;2022-07-31T04:14:11;6.93;;;3.73;;
61383;SDS011;47254;49.346;8.798;2022-07-31T04:16:36;4.60;;;3.90;;
61383;SDS011;47254;49.346;8.798;2022-07-31T04:19:01;4.72;;;3.17;;
61383;SDS011;47254;49.346;8.798;2022-07-31T04:21:27;3.55;;;3.15;;
61383;SDS011;47254;49.346;8.798;2022-07-31T04:23:54;4.82;;;3.03;;
61383;SDS011;47254;49.346;8.798;2022-07-31T04:26:22;5.57;;;3.50;;
61383;SDS011;47254;49.346;8.798;2022-07-31T04:28:48;4.97;;;3.22;;
61383;SDS011;47254;49.346;8.798;2022-07-31T04:31:13;5.57;;;3.20;;
61383;SDS011;47254;49.346;8.798;2022-07-31T04:33:38;7.00;;;3.80;;
61383;SDS011;47254;49.346;8.798;2022-07-31T04:36:04;3.37;;;3.07;;
61383;SDS011;47254;49.346;8.798;2022-07-31T04:38:29;5.63;;;3.20;;
61383;SDS011;47254;49.346;8.798;2022-07-31T04:40:54;4.23;;;2.90;;
61383;SDS011;47254;49.346;8.798;2022-07-31T04:43:19;4.33;;;3.20;;
61383;SDS011;47254;49.346;8.798;2022-07-31T04:45:45;5.30;;;3.63;;
61383;SDS011;47254;49.346;8.798;2022-07-31T04:48:10;5.87;;;3.47;;
61383;SDS011;47254;49.346;8.798;2022-07-31T04:50:35;6.05;;;2.90;;
61383;SDS011;47254;49.346;8.798;2022-07-31T04:53:01;6.00;;;3.05;;
61383;SDS011;47254;49.346;8.798;2022-07-31T04:55:26;6.00;;;3.10;;
61383;SDS011;47254;49.346;8.798;2022-07-31T04:57:54;7.70;;;2.80;;
61383;SDS011;47254;49.346;8.798;2022-07-31T05:00:19;3.20;;;2.80;;
61383;SDS011;47254;49.346;8.798;2022-07-31T05:02:44;4.72;;;2.72;;
61383;SDS011;47254;49.346;8.798;2022-07-31T05:05:09;7.45;;;3.42;;
61383;SDS011;47254;49.346;8.798;2022-07-31T05:07:34;6.80;;;3.70;;
61383;SDS011;47254;49.346;8.798;2022-07-31T05:10:03;5.15;;;3.28;;
61383;SDS011;47254;49.346;8.798;2022-07-31T05:12:28;7.50;;;3.20;;
61383;SDS011;47254;49.346;8.798;2022-07-31T05:14:53;5.57;;;3.27;;
61383;SDS011;47254;49.346;8.798;2022-07-31T05:17:18;6.67;;;3.30;;
61383;SDS011;47254;49.346;8.798;2022-07-31T05:19:44;4.83;;;3.03;;
61383;SDS011;47254;49.346;8.798;2022-07-31T05:22:09;3.00;;;2.70;;
61383;SDS011;47254;49.346;8.798;2022-07-31T05:24:35;3.20;;;2.90;;
61383;SDS011;47254;49.346;8.798;2022-07-31T05:27:01;3.70;;;3.20;;
61383;SDS011;47254;49.346;8.798;2022-07-31T05:29:28;3.42;;;2.83;;
61383;SDS011;47254;49.346;8.798;2022-07-31T05:31:56;3.65;;;2.97;;
61383;SDS011;47254;49.346;8.798;2022-07-31T05:34:24;5.00;;;3.17;;
61383;SDS011;47254;49.346;8.798;2022-07-31T05:36:49;3.80;;;3.50;;
61383;SDS011;47254;49.346;8.798;2022-07-31T05:39:14;4.28;;;3.25;;
61383;SDS011;47254;49.346;8.798;2022-07-31T05:41:44;4.93;;;3.20;;
61383;SDS011;47254;49.346;8.798;2022-07-31T05:44:13;3.45;;;2.67;;
61383;SDS011;47254;49.346;8.798;2022-07-31T05:46:40;5.55;;;3.42;;
61383;SDS011;47254;49.346;8.798;2022-07-31T05:49:05;5.27;;;2.53;;
61383;SDS011;47254;49.346;8.798;2022-07-31T05:51:33;2.90;;;2.50;;
61383;SDS011;47254;49.346;8.798;2022-07-31T05:53:58;5.47;;;3.50;;
61383;SDS011;47254;49.346;8.798;2022-07-31T05:56:23;5.90;;;3.10;;
61383;SDS011;47254;49.346;8.798;2022-07-31T05:58:51;6.05;;;3.25;;
61383;SDS011;47254;49.346;8.798;2022-07-31T06:01:16;8.50;;;2.90;;
61383;SDS011;47254;49.346;8.798;2022-07-31T06:03:42;4.20;;;2.87;;
61383;SDS011;47254;49.346;8.798;2022-07-31T06:06:07;6.77;;;3.37;;
61383;SDS011;47254;49.346;8.798;2022-07-31T06:08:32;8.63;;;3.90;;
61383;SDS011;47254;49.346;8.798;2022-07-31T06:11:00;4.32;;;3.05;;
61383;SDS011;47254;49.346;8.798;2022-07-31T06:13:25;5.43;;;3.25;;
61383;SDS011;47254;49.346;8.798;2022-07-31T06:15:51;4.93;;;3.33;;
61383;SDS011;47254;49.346;8.798;2022-07-31T06:18:17;12.38;;;3.28;;
61383;SDS011;47254;49.346;8.798;2022-07-31T06:20:42;4.67;;;2.97;;
61383;SDS011;47254;49.346;8.798;2022-07-31T06:23:07;4.80;;;3.20;;
61383;SDS011;47254;49.346;8.798;2022-07-31T06:25:35;3.75;;;2.67;;
61383;SDS011;47254;49.346;8.798;2022-07-31T06:28:03;4.35;;;3.15;;
61383;SDS011;47254;49.346;8.798;2022-07-31T06:30:28;11.70;;;3.03;;
61383;SDS011;47254;49.346;8.798;2022-07-31T06:32:53;3.67;;;3.17;;
61383;SDS011;47254;49.346;8.798;2022-07-31T06:35:18;5.65;;;2.83;;
61383;SDS011;47254;49.346;8.798;2022-07-31T06:37:44;4.53;;;3.10;;
61383;SDS011;47254;49.346;8.798;2022-07-31T06:40:09;4.50;;;2.63;;
61383;SDS011;47254;49.346;8.798;2022-07-31T06:42:37;3.65;;;2.63;;
61383;SDS011;47254;49.346;8.798;2022-07-31T06:45:02;3.80;;;2.90;;
61383;SDS011;47254;49.346;8.798;2022-07-31T06:47:30;4.20;;;2.90;;
61383;SDS011;47254;49.346;8.798;2022-07-31T06:49:58;9.10;;;2.97;;
61383;SDS011;47254;49.346;8.798;2022-07-31T06:52:23;3.00;;;2.60;;
61383;SDS011;47254;49.346;8.798;2022-07-31T06:54:50;10.98;;;2.70;;
61383;SDS011;47254;49.346;8.798;2022-07-31T06:57:18;4.53;;;2.95;;
61383;SDS011;47254;49.346;8.798;2022-07-31T06:59:46;4.80;;;2.60;;
61383;SDS011;47254;49.346;8.798;2022-07-31T07:02:11;4.18;;;2.85;;
61383;SDS011;47254;49.346;8.798;2022-07-31T07:04:39;4.95;;;3.00;;
61383;SDS011;47254;49.346;8.798;2022-07-31T07:07:05;6.82;;;3.15;;
61383;SDS011;47254;49.346;8.798;2022-07-31T07:09:30;5.33;;;3.00;;
61383;SDS011;47254;49.346;8.798;2022-07-31T07:11:55;5.18;;;2.88;;
61383;SDS011;47254;49.346;8.798;2022-07-31T07:14:21;8.25;;;2.83;;
61383;SDS011;47254;49.346;8.798;2022-07-31T07:16:46;5.27;;;2.90;;
61383;SDS011;47254;49.346;8.798;2022-07-31T07:19:11;5.53;;;2.93;;
61383;SDS011;47254;49.346;8.798;2022-07-31T07:21:36;2.60;;;2.40;;
61383;SDS011;47254;49.346;8.798;2022-07-31T07:24:01;4.50;;;2.77;;
61383;SDS011;47254;49.346;8.798;2022-07-31T07:26:28;4.28;;;3.28;;
61383;SDS011;47254;49.346;8.798;2022-07-31T07:28:53;6.80;;;2.78;;
61383;SDS011;47254;49.346;8.798;2022-07-31T07:31:18;3.70;;;3.10;;
61383;SDS011;47254;49.346;8.798;2022-07-31T07:33:46;4.07;;;3.10;;
61383;SDS011;47254;49.346;8.798;2022-07-31T07:36:14;8.35;;;3.45;;
61383;SDS011;47254;49.346;8.798;2022-07-31T07:38:42;3.40;;;2.80;;
61383;SDS011;47254;49.346;8.798;2022-07-31T07:41:07;3.72;;;3.03;;
61383;SDS011;47254;49.346;8.798;2022-07-31T07:43:32;4.13;;;2.70;;
61383;SDS011;47254;49.346;8.798;2022-07-31T07:46:00;5.15;;;2.80;;
61383;SDS011;47254;49.346;8.798;2022-07-31T07:48:30;4.05;;;2.75;;
61383;SDS011;47254;49.346;8.798;2022-07-31T07:51:00;6.17;;;2.80;;
61383;SDS011;47254;49.346;8.798;2022-07-31T07:53:27;2.75;;;2.33;;
61383;SDS011;47254;49.346;8.798;2022-07-31T07:55:52;7.87;;;2.80;;
61383;SDS011;47254;49.346;8.798;2022-07-31T07:58:18;5.87;;;3.00;;
61383;SDS011;47254;49.346;8.798;2022-07-31T08:00:47;7.10;;;3.03;;
61383;SDS011;47254;49.346;8.798;2022-07-31T08:03:13;10.02;;;3.65;;
61383;SDS011;47254;49.346;8.798;2022-07-31T08:05:38;7.93;;;2.73;;
61383;SDS011;47254;49.346;8.798;2022-07-31T08:08:05;3.15;;;2.90;;
61383;SDS011;47254;49.346;8.798;2022-07-31T08:10:33;4.93;;;2.97;;
61383;SDS011;47254;49.346;8.798;2022-07-31T08:12:58;6.18;;;3.17;;
61383;SDS011;47254;49.346;8.798;2022-07-31T08:15:24;3.85;;;2.70;;
61383;SDS011;47254;49.346;8.798;2022-07-31T08:17:53;4.65;;;2.92;;
61383;SDS011;47254;49.346;8.798;2022-07-31T08:20:19;20.02;;;4.10;;
61383;SDS011;47254;49.346;8.798;2022-07-31T08:22:44;5.18;;;3.30;;
61383;SDS011;47254;49.346;8.798;2022-07-31T08:25:11;11.47;;;2.67;;
61383;SDS011;47254;49.346;8.798;2022-07-31T08:27:37;5.15;;;3.15;;
61383;SDS011;47254;49.346;8.798;2022-07-31T08:30:02;2.83;;;2.53;;
61383;SDS011;47254;49.346;8.798;2022-07-31T08:32:27;9.10;;;2.97;;
61383;SDS011;47254;49.346;8.798;2022-07-31T08:34:55;3.27;;;2.27;;
61383;SDS011;47254;49.346;8.798;2022-07-31T08:37:21;3.63;;;3.08;;
61383;SDS011;47254;49.346;8.798;2022-07-31T08:39:47;6.40;;;3.38;;
61383;SDS011;47254;49.346;8.798;2022-07-31T08:42:14;5.65;;;2.67;;
61383;SDS011;47254;49.346;8.798;2022-07-31T08:44:42;4.53;;;3.20;;
61383;SDS011;47254;49.346;8.798;2022-07-31T08:47:08;5.00;;;2.40;;
61383;SDS011;47254;49.346;8.798;2022-07-31T08:49:35;4.35;;;3.00;;
61383;SDS011;47254;49.346;8.798;2022-07-31T08:52:01;6.75;;;2.90;;
61383;SDS011;47254;49.346;8.798;2022-07-31T08:54:28;3.78;;;2.60;;
61383;SDS011;47254;49.346;8.798;2022-07-31T08:56:54;4.00;;;2.92;;
61383;SDS011;47254;49.346;8.798;2022-07-31T08:59:19;4.13;;;2.67;;
61383;SDS011;47254;49.346;8.798;2022-07-31T09:01:47;4.68;;;2.90;;
61383;SDS011;47254;49.346;8.798;2022-07-31T09:04:12;9.82;;;2.80;;
61383;SDS011;47254;49.346;8.798;2022-07-31T09:06:37;7.43;;;2.73;;
61383;SDS011;47254;49.346;8.798;2022-07-31T09:09:03;3.77;;;2.73;;
61383;SDS011;47254;49.346;8.798;2022-07-31T09:11:28;3.97;;;2.63;;
61383;SDS011;47254;49.346;8.798;2022-07-31T09:14:00;3.70;;;2.78;;
61383;SDS011;47254;49.346;8.798;2022-07-31T09:16:25;3.58;;;2.67;;
61383;SDS011;47254;49.346;8.798;2022-07-31T09:18:57;9.43;;;2.45;;
61383;SDS011;47254;49.346;8.798;2022-07-31T09:21:22;5.55;;;2.60;;
61383;SDS011;47254;49.346;8.798;2022-07-31T09:23:48;7.77;;;3.03;;
61383;SDS011;47254;49.346;8.798;2022-07-31T09:26:18;3.80;;;2.47;;
61383;SDS011;47254;49.346;8.798;2022-07-31T09:28:44;8.20;;;3.03;;
61383;SDS011;47254;49.346;8.798;2022-07-31T09:31:10;3.15;;;2.65;;
61383;SDS011;47254;49.346;8.798;2022-07-31T09:33:36;8.93;;;2.88;;
61383;SDS011;47254;49.346;8.798;2022-07-31T09:36:05;4.65;;;2.50;;
61383;SDS011;47254;49.346;8.798;2022-07-31T09:38:37;3.80;;;2.20;;
61383;SDS011;47254;49.346;8.798;2022-07-31T09:41:06;6.97;;;2.75;;
61383;SDS011;47254;49.346;8.798;2022-07-31T09:43:33;3.10;;;2.38;;
61383;SDS011;47254;49.346;8.798;2022-07-31T09:46:01;4.93;;;2.60;;
61383;SDS011;47254;49.346;8.798;2022-07-31T09:48:29;4.45;;;2.00;;
61383;SDS011;47254;49.346;8.798;2022-07-31T09:50:58;9.82;;;2.25;;
61383;SDS011;47254;49.346;8.798;2022-07-31T09:53:26;5.53;;;2.20;;
61383;SDS011;47254;49.346;8.798;2022-07-31T09:55:52;5.35;;;2.53;;
61383;SDS011;47254;49.346;8.798;2022-07-31T09:58:18;6.07;;;2.53;;
61383;SDS011;47254;49.346;8.798;2022-07-31T10:00:44;2.42;;;1.98;;
61383;SDS011;47254;49.346;8.798;2022-07-31T10:03:10;4.10;;;1.88;;
61383;SDS011;47254;49.346;8.798;2022-07-31T10:05:37;3.15;;;2.20;;
61383;SDS011;47254;49.346;8.798;2022-07-31T10:08:05;3.92;;;2.20;;
61383;SDS011;47254;49.346;8.798;2022-07-31T10:10:30;4.73;;;2.30;;
61383;SDS011;47254;49.346;8.798;2022-07-31T10:12:55;5.35;;;2.17;;
61383;SDS011;47254;49.346;8.798;2022-07-31T10:15:23;3.85;;;1.98;;
61383;SDS011;47254;49.346;8.798;2022-07-31T10:17:50;6.32;;;1.95;;
61383;SDS011;47254;49.346;8.798;2022-07-31T10:20:18;4.75;;;2.28;;
61383;SDS011;47254;49.346;8.798;2022-07-31T10:22:46;9.77;;;2.63;;
61383;SDS011;47254;49.346;8.798;2022-07-31T10:25:27;3.85;;;1.92;;
61383;SDS011;47254;49.346;8.798;2022-07-31T10:27:55;5.70;;;2.58;;
61383;SDS011;47254;49.346;8.798;2022-07-31T10:30:21;5.38;;;2.42;;
61383;SDS011;47254;49.346;8.798;2022-07-31T10:32:50;4.10;;;2.00;;
61383;SDS011;47254;49.346;8.798;2022-07-31T10:35:15;2.72;;;2.15;;
61383;SDS011;47254;49.346;8.798;2022-07-31T10:42:51;10.02;;;2.53;;
61383;SDS011;47254;49.346;8.798;2022-07-31T10:45:20;5.95;;;2.30;;
61383;SDS011;47254;49.346;8.798;2022-07-31T10:47:53;4.40;;;2.58;;
61383;SDS011;47254;49.346;8.798;2022-07-31T10:50:20;2.88;;;1.67;;
61383;SDS011;47254;49.346;8.798;2022-07-31T10:52:45;6.50;;;2.20;;
61383;SDS011;47254;49.346;8.798;2022-07-31T10:55:17;3.23;;;1.90;;
61383;SDS011;47254;49.346;8.798;2022-07-31T10:57:43;2.33;;;1.85;;
61383;SDS011;47254;49.346;8.798;2022-07-31T11:00:09;6.95;;;2.38;;
61383;SDS011;47254;49.346;8.798;2022-07-31T11:02:37;6.80;;;2.17;;
61383;SDS011;47254;49.346;8.798;2022-07-31T11:07:32;4.70;;;2.05;;
61383;SDS011;47254;49.346;8.798;2022-07-31T11:10:13;5.60;;;2.33;;
61383;SDS011;47254;49.346;8.798;2022-07-31T11:12:38;2.85;;;1.88;;
61383;SDS011;47254;49.346;8.798;2022-07-31T11:15:15;6.88;;;1.85;;
61383;SDS011;47254;49.346;8.798;2022-07-31T11:17:41;3.83;;;1.67;;
61383;SDS011;47254;49.346;8.798;2022-07-31T11:20:15;1.97;;;1.53;;
61383;SDS011;47254;49.346;8.798;2022-07-31T11:22:41;6.78;;;1.90;;
61383;SDS011;47254;49.346;8.798;2022-07-31T11:25:11;7.07;;;1.35;;
61383;SDS011;47254;49.346;8.798;2022-07-31T11:27:39;2.38;;;2.15;;
61383;SDS011;47254;49.346;8.798;2022-07-31T11:30:07;2.15;;;1.60;;
61383;SDS011;47254;49.346;8.798;2022-07-31T11:32:32;6.95;;;1.80;;
61383;SDS011;47254;49.346;8.798;2022-07-31T11:34:58;3.20;;;1.70;;
61383;SDS011;47254;49.346;8.798;2022-07-31T11:37:24;4.17;;;1.50;;
61383;SDS011;47254;49.346;8.798;2022-07-31T11:39:50;2.45;;;1.73;;
61383;SDS011;47254;49.346;8.798;2022-07-31T11:42:16;3.35;;;1.90;;
61383;SDS011;47254;49.346;8.798;2022-07-31T11:44:43;1.42;;;1.33;;
61383;SDS011;47254;49.346;8.798;2022-07-31T11:47:08;3.33;;;2.07;;
61383;SDS011;47254;49.346;8.798;2022-07-31T11:49:33;5.30;;;2.03;;
61383;SDS011;47254;49.346;8.798;2022-07-31T11:52:01;8.23;;;1.92;;
61383;SDS011;47254;49.346;8.798;2022-07-31T11:54:26;6.72;;;2.03;;
61383;SDS011;47254;49.346;8.798;2022-07-31T11:56:54;5.97;;;1.93;;
61383;SDS011;47254;49.346;8.798;2022-07-31T11:59:33;3.38;;;1.50;;
61383;SDS011;47254;49.346;8.798;2022-07-31T12:02:08;5.75;;;1.98;;
61383;SDS011;47254;49.346;8.798;2022-07-31T12:04:36;5.45;;;1.98;;
61383;SDS011;47254;49.346;8.798;2022-07-31T12:07:05;4.20;;;2.13;;
61383;SDS011;47254;49.346;8.798;2022-07-31T12:09:30;4.93;;;3.22;;
61383;SDS011;47254;49.346;8.798;2022-07-31T12:11:56;5.55;;;2.15;;
61383;SDS011;47254;49.346;8.798;2022-07-31T12:14:31;6.88;;;1.77;;
61383;SDS011;47254;49.346;8.798;2022-07-31T12:17:00;3.42;;;1.60;;
61383;SDS011;47254;49.346;8.798;2022-07-31T12:19:28;5.70;;;2.25;;
61383;SDS011;47254;49.346;8.798;2022-07-31T12:21:54;3.40;;;1.67;;
61383;SDS011;47254;49.346;8.798;2022-07-31T12:24:19;3.90;;;1.80;;
61383;SDS011;47254;49.346;8.798;2022-07-31T12:29:16;2.95;;;1.90;;
61383;SDS011;47254;49.346;8.798;2022-07-31T12:31:49;4.25;;;1.75;;
61383;SDS011;47254;49.346;8.798;2022-07-31T12:37:06;7.88;;;1.90;;
61383;SDS011;47254;49.346;8.798;2022-07-31T12:39:33;3.72;;;2.17;;
61383;SDS011;47254;49.346;8.798;2022-07-31T12:41:59;7.97;;;2.53;;
61383;SDS011;47254;49.346;8.798;2022-07-31T12:44:26;1.57;;;1.47;;
61383;SDS011;47254;49.346;8.798;2022-07-31T12:46:53;6.20;;;1.67;;
61383;SDS011;47254;49.346;8.798;2022-07-31T12:49:20;4.93;;;1.63;;
61383;SDS011;47254;49.346;8.798;2022-07-31T12:51:48;6.90;;;2.38;;
61383;SDS011;47254;49.346;8.798;2022-07-31T12:54:16;2.88;;;1.70;;
61383;SDS011;47254;49.346;8.798;2022-07-31T12:56:41;2.75;;;1.60;;
61383;SDS011;47254;49.346;8.798;2022-07-31T12:59:07;6.53;;;1.87;;
61383;SDS011;47254;49.346;8.798;2022-07-31T13:01:32;3.05;;;2.10;;
61383;SDS011;47254;49.346;8.798;2022-07-31T13:03:58;3.47;;;1.88;;
61383;SDS011;47254;49.346;8.798;2022-07-31T13:06:25;9.27;;;1.80;;
61383;SDS011;47254;49.346;8.798;2022-07-31T13:08:51;3.53;;;1.83;;
61383;SDS011;47254;49.346;8.798;2022-07-31T13:11:16;6.47;;;1.60;;
61383;SDS011;47254;49.346;8.798;2022-07-31T13:13:44;4.20;;;1.95;;
61383;SDS011;47254;49.346;8.798;2022-07-31T13:16:09;4.10;;;2.05;;
61383;SDS011;47254;49.346;8.798;2022-07-31T13:18:34;3.97;;;1.67;;
61383;SDS011;47254;49.346;8.798;2022-07-31T13:21:02;4.28;;;1.92;;
61383;SDS011;47254;49.346;8.798;2022-07-31T13:23:28;2.88;;;1.83;;
61383;SDS011;47254;49.346;8.798;2022-07-31T13:25:53;7.30;;;1.88;;
61383;SDS011;47254;49.346;8.798;2022-07-31T13:28:18;2.30;;;1.63;;
61383;SDS011;47254;49.346;8.798;2022-07-31T13:30:46;4.28;;;1.95;;
61383;SDS011;47254;49.346;8.798;2022-07-31T13:33:11;6.30;;;1.97;;
61383;SDS011;47254;49.346;8.798;2022-07-31T13:35:36;2.77;;;1.47;;
61383;SDS011;47254;49.346;8.798;2022-07-31T13:38:01;3.57;;;1.83;;
61383;SDS011;47254;49.346;8.798;2022-07-31T13:40:27;3.03;;;1.63;;
61383;SDS011;47254;49.346;8.798;2022-07-31T13:43:11;2.75;;;1.83;;
61383;SDS011;47254;49.346;8.798;2022-07-31T13:45:39;6.80;;;2.08;;
61383;SDS011;47254;49.346;8.798;2022-07-31T13:48:05;4.17;;;1.50;;
61383;SDS011;47254;49.346;8.798;2022-07-31T13:50:30;12.80;;;2.45;;
61383;SDS011;47254;49.346;8.798;2022-07-31T13:52:57;3.85;;;1.50;;
61383;SDS011;47254;49.346;8.798;2022-07-31T13:55:23;1.87;;;1.40;;
61383;SDS011;47254;49.346;8.798;2022-07-31T13:57:51;1.75;;;1.45;;
61383;SDS011;47254;49.346;8.798;2022-07-31T14:00:16;3.28;;;1.75;;
61383;SDS011;47254;49.346;8.798;2022-07-31T14:02:44;4.88;;;1.75;;
61383;SDS011;47254;49.346;8.798;2022-07-31T14:05:11;3.70;;;1.50;;
61383;SDS011;47254;49.346;8.798;2022-07-31T14:07:36;5.55;;;1.40;;
61383;SDS011;47254;49.346;8.798;2022-07-31T14:10:04;3.42;;;1.90;;
61383;SDS011;47254;49.346;8.798;2022-07-31T14:12:29;2.83;;;1.80;;
61383;SDS011;47254;49.346;8.798;2022-07-31T14:14:57;2.75;;;1.48;;
61383;SDS011;47254;49.346;8.798;2022-07-31T14:17:22;2.53;;;1.77;;
61383;SDS011;47254;49.346;8.798;2022-07-31T14:19:47;8.20;;;1.70;;
61383;SDS011;47254;49.346;8.798;2022-07-31T14:22:15;2.47;;;2.00;;
61383;SDS011;47254;49.346;8.798;2022-07-31T14:24:40;6.55;;;2.40;;
61383;SDS011;47254;49.346;8.798;2022-07-31T14:27:06;2.85;;;1.83;;
61383;SDS011;47254;49.346;8.798;2022-07-31T14:29:34;5.28;;;1.65;;
61383;SDS011;47254;49.346;8.798;2022-07-31T14:31:59;1.97;;;1.70;;
61383;SDS011;47254;49.346;8.798;2022-07-31T14:34:24;4.23;;;1.50;;
61383;SDS011;47254;49.346;8.798;2022-07-31T14:36:49;4.17;;;1.80;;
61383;SDS011;47254;49.346;8.798;2022-07-31T14:39:17;4.97;;;1.98;;
61383;SDS011;47254;49.346;8.798;2022-07-31T14:41:43;3.03;;;1.60;;
61383;SDS011;47254;49.346;8.798;2022-07-31T14:44:12;9.30;;;1.45;;
61383;SDS011;47254;49.346;8.798;2022-07-31T14:46:40;2.17;;;1.48;;
61383;SDS011;47254;49.346;8.798;2022-07-31T14:49:05;2.87;;;1.60;;
61383;SDS011;47254;49.346;8.798;2022-07-31T14:51:33;5.95;;;1.83;;
61383;SDS011;47254;49.346;8.798;2022-07-31T14:53:58;7.93;;;1.73;;
61383;SDS011;47254;49.346;8.798;2022-07-31T14:56:29;7.63;;;1.85;;
61383;SDS011;47254;49.346;8.798;2022-07-31T15:01:21;2.35;;;1.50;;
61383;SDS011;47254;49.346;8.798;2022-07-31T15:03:47;2.10;;;1.47;;
61383;SDS011;47254;49.346;8.798;2022-07-31T15:06:14;6.05;;;3.10;;